sensor_id;sensor_type;location;lat;lon;timestamp;P1;durP1;ratioP1;P2;durP2;ratioP2
8044;SDS011;4065;48.754;9.982;2023-10-13T00:00:37;8.68;;;4.38;;
8044;SDS011;4065;48.754;9.982;2023-10-13T00:04:02;9.30;;;4.25;;
8044;SDS011;4065;48.754;9.982;2023-10-13T00:07:26;10.13;;;4.75;;
8044;SDS011;4065;48.754;9.982;2023-10-13T00:10:48;9.65;;;4.18;;
8044;SDS011;4065;48.754;9.982;2023-10-13T00:14:10;7.65;;;4.13;;
8044;SDS011;4065;48.754;9.982;2023-10-13T00:17:36;8.95;;;4.57;;
8044;SDS011;4065;48.754;9.982;2023-10-13T00:21:00;8.82;;;4.90;;
8044;SDS011;4065;48.754;9.982;2023-10-13T00:24:32;7.40;;;3.95;;
8044;SDS011;4065;48.754;9.982;2023-10-13T00:28:03;10.35;;;4.47;;
8044;SDS011;4065;48.754;9.982;2023-10-13T00:31:28;8.57;;;4.43;;
8044;SDS011;4065;48.754;9.982;2023-10-13T00:34:53;8.93;;;4.78;;
8044;SDS011;4065;48.754;9.982;2023-10-13T00:38:18;9.15;;;4.13;;
8044;SDS011;4065;48.754;9.982;2023-10-13T00:41:40;10.38;;;4.32;;
8044;SDS011;4065;48.754;9.982;2023-10-13T00:45:12;8.15;;;4.70;;
8044;SDS011;4065;48.754;9.982;2023-10-13T00:48:37;8.45;;;4.95;;
8044;SDS011;4065;48.754;9.982;2023-10-13T00:52:03;9.20;;;4.38;;
8044;SDS011;4065;48.754;9.982;2023-10-13T00:55:27;8.43;;;5.10;;
8044;SDS011;4065;48.754;9.982;2023-10-13T00:58:53;10.40;;;4.63;;
8044;SDS011;4065;48.754;9.982;2023-10-13T01:02:18;7.32;;;4.15;;
8044;SDS011;4065;48.754;9.982;2023-10-13T01:05:59;10.45;;;4.82;;
8044;SDS011;4065;48.754;9.982;2023-10-13T01:09:24;9.45;;;5.03;;
8044;SDS011;4065;48.754;9.982;2023-10-13T01:12:47;13.57;;;4.93;;
8044;SDS011;4065;48.754;9.982;2023-10-13T01:16:08;12.43;;;4.97;;
8044;SDS011;4065;48.754;9.982;2023-10-13T01:19:35;10.30;;;5.15;;
8044;SDS011;4065;48.754;9.982;2023-10-13T01:22:59;10.25;;;5.10;;
8044;SDS011;4065;48.754;9.982;2023-10-13T01:26:23;8.40;;;4.82;;
8044;SDS011;4065;48.754;9.982;2023-10-13T01:29:47;12.25;;;5.00;;
8044;SDS011;4065;48.754;9.982;2023-10-13T01:33:10;6.80;;;4.00;;
8044;SDS011;4065;48.754;9.982;2023-10-13T01:36:31;8.18;;;4.82;;
8044;SDS011;4065;48.754;9.982;2023-10-13T01:39:56;10.52;;;5.13;;
8044;SDS011;4065;48.754;9.982;2023-10-13T01:43:19;7.90;;;4.65;;
8044;SDS011;4065;48.754;9.982;2023-10-13T01:46:40;14.57;;;4.32;;
8044;SDS011;4065;48.754;9.982;2023-10-13T01:50:03;8.93;;;4.95;;
8044;SDS011;4065;48.754;9.982;2023-10-13T01:53:35;7.47;;;4.80;;
8044;SDS011;4065;48.754;9.982;2023-10-13T01:56:58;9.30;;;4.95;;
8044;SDS011;4065;48.754;9.982;2023-10-13T02:00:21;8.60;;;4.57;;
8044;SDS011;4065;48.754;9.982;2023-10-13T02:03:46;7.40;;;5.05;;
8044;SDS011;4065;48.754;9.982;2023-10-13T02:07:09;7.97;;;4.63;;
8044;SDS011;4065;48.754;9.982;2023-10-13T02:10:35;8.27;;;4.90;;
8044;SDS011;4065;48.754;9.982;2023-10-13T02:13:56;10.80;;;5.28;;
8044;SDS011;4065;48.754;9.982;2023-10-13T02:17:19;10.57;;;4.80;;
8044;SDS011;4065;48.754;9.982;2023-10-13T02:20:43;10.25;;;4.90;;
8044;SDS011;4065;48.754;9.982;2023-10-13T02:24:06;11.50;;;4.43;;
8044;SDS011;4065;48.754;9.982;2023-10-13T02:27:33;7.53;;;4.75;;
8044;SDS011;4065;48.754;9.982;2023-10-13T02:31:01;9.70;;;4.90;;
8044;SDS011;4065;48.754;9.982;2023-10-13T02:34:25;9.48;;;5.22;;
8044;SDS011;4065;48.754;9.982;2023-10-13T02:37:47;17.10;;;5.45;;
8044;SDS011;4065;48.754;9.982;2023-10-13T02:41:15;8.90;;;5.32;;
8044;SDS011;4065;48.754;9.982;2023-10-13T02:44:46;10.80;;;4.82;;
8044;SDS011;4065;48.754;9.982;2023-10-13T02:48:08;8.45;;;5.32;;
8044;SDS011;4065;48.754;9.982;2023-10-13T02:51:34;7.28;;;4.95;;
8044;SDS011;4065;48.754;9.982;2023-10-13T02:54:56;10.27;;;5.10;;
8044;SDS011;4065;48.754;9.982;2023-10-13T02:58:18;10.23;;;5.20;;
8044;SDS011;4065;48.754;9.982;2023-10-13T03:01:40;7.55;;;4.68;;
8044;SDS011;4065;48.754;9.982;2023-10-13T03:05:02;8.43;;;5.05;;
8044;SDS011;4065;48.754;9.982;2023-10-13T03:08:30;11.90;;;6.00;;
8044;SDS011;4065;48.754;9.982;2023-10-13T03:11:51;8.02;;;5.80;;
8044;SDS011;4065;48.754;9.982;2023-10-13T03:15:13;9.10;;;5.85;;
8044;SDS011;4065;48.754;9.982;2023-10-13T03:18:38;7.72;;;4.90;;
8044;SDS011;4065;48.754;9.982;2023-10-13T03:22:00;9.00;;;6.07;;
8044;SDS011;4065;48.754;9.982;2023-10-13T03:25:31;8.68;;;5.22;;
8044;SDS011;4065;48.754;9.982;2023-10-13T03:29:03;10.27;;;5.85;;
8044;SDS011;4065;48.754;9.982;2023-10-13T03:32:29;10.23;;;5.20;;
8044;SDS011;4065;48.754;9.982;2023-10-13T03:35:51;12.10;;;6.70;;
8044;SDS011;4065;48.754;9.982;2023-10-13T03:39:14;12.25;;;5.72;;
8044;SDS011;4065;48.754;9.982;2023-10-13T03:42:37;10.95;;;6.18;;
8044;SDS011;4065;48.754;9.982;2023-10-13T03:46:00;10.57;;;5.80;;
8044;SDS011;4065;48.754;9.982;2023-10-13T03:49:28;11.52;;;5.90;;
8044;SDS011;4065;48.754;9.982;2023-10-13T03:52:51;9.18;;;5.57;;
8044;SDS011;4065;48.754;9.982;2023-10-13T03:56:18;9.65;;;5.78;;
8044;SDS011;4065;48.754;9.982;2023-10-13T03:59:48;8.15;;;5.57;;
8044;SDS011;4065;48.754;9.982;2023-10-13T04:03:09;8.43;;;6.00;;
8044;SDS011;4065;48.754;9.982;2023-10-13T04:06:36;9.85;;;6.72;;
8044;SDS011;4065;48.754;9.982;2023-10-13T04:10:14;12.70;;;6.30;;
8044;SDS011;4065;48.754;9.982;2023-10-13T04:13:54;10.93;;;6.22;;
8044;SDS011;4065;48.754;9.982;2023-10-13T04:17:34;10.75;;;5.95;;
8044;SDS011;4065;48.754;9.982;2023-10-13T04:21:01;9.50;;;5.85;;
8044;SDS011;4065;48.754;9.982;2023-10-13T04:24:39;10.98;;;6.57;;
8044;SDS011;4065;48.754;9.982;2023-10-13T04:28:20;11.45;;;6.82;;
8044;SDS011;4065;48.754;9.982;2023-10-13T04:31:58;11.63;;;6.25;;
8044;SDS011;4065;48.754;9.982;2023-10-13T04:35:22;8.90;;;6.32;;
8044;SDS011;4065;48.754;9.982;2023-10-13T04:38:46;12.20;;;6.80;;
8044;SDS011;4065;48.754;9.982;2023-10-13T04:42:30;8.45;;;6.15;;
8044;SDS011;4065;48.754;9.982;2023-10-13T04:46:10;11.35;;;6.80;;
8044;SDS011;4065;48.754;9.982;2023-10-13T04:49:45;16.08;;;6.53;;
8044;SDS011;4065;48.754;9.982;2023-10-13T04:53:15;11.05;;;6.88;;
8044;SDS011;4065;48.754;9.982;2023-10-13T04:56:50;10.07;;;6.47;;
8044;SDS011;4065;48.754;9.982;2023-10-13T05:00:35;10.52;;;6.07;;
8044;SDS011;4065;48.754;9.982;2023-10-13T05:04:14;11.65;;;6.88;;
8044;SDS011;4065;48.754;9.982;2023-10-13T05:07:58;11.65;;;7.05;;
8044;SDS011;4065;48.754;9.982;2023-10-13T05:11:40;8.93;;;6.53;;
8044;SDS011;4065;48.754;9.982;2023-10-13T05:15:19;11.48;;;6.95;;
8044;SDS011;4065;48.754;9.982;2023-10-13T05:18:58;10.90;;;6.40;;
8044;SDS011;4065;48.754;9.982;2023-10-13T05:22:37;15.38;;;8.05;;
8044;SDS011;4065;48.754;9.982;2023-10-13T05:26:16;9.18;;;6.43;;
8044;SDS011;4065;48.754;9.982;2023-10-13T05:29:57;12.60;;;7.20;;
8044;SDS011;4065;48.754;9.982;2023-10-13T05:33:36;12.27;;;7.78;;
8044;SDS011;4065;48.754;9.982;2023-10-13T05:37:16;13.93;;;6.85;;
8044;SDS011;4065;48.754;9.982;2023-10-13T05:40:56;12.27;;;7.13;;
8044;SDS011;4065;48.754;9.982;2023-10-13T05:44:36;9.00;;;6.82;;
8044;SDS011;4065;48.754;9.982;2023-10-13T05:48:20;9.98;;;6.35;;
8044;SDS011;4065;48.754;9.982;2023-10-13T05:51:55;14.18;;;6.97;;
8044;SDS011;4065;48.754;9.982;2023-10-13T05:55:27;11.27;;;7.25;;
8044;SDS011;4065;48.754;9.982;2023-10-13T05:59:07;9.70;;;6.82;;
8044;SDS011;4065;48.754;9.982;2023-10-13T06:02:47;11.80;;;6.82;;
8044;SDS011;4065;48.754;9.982;2023-10-13T06:06:28;9.85;;;7.28;;
8044;SDS011;4065;48.754;9.982;2023-10-13T06:10:07;11.55;;;7.38;;
8044;SDS011;4065;48.754;9.982;2023-10-13T06:13:47;11.45;;;6.05;;
8044;SDS011;4065;48.754;9.982;2023-10-13T06:17:26;9.80;;;6.75;;
8044;SDS011;4065;48.754;9.982;2023-10-13T06:21:06;11.27;;;7.35;;
8044;SDS011;4065;48.754;9.982;2023-10-13T06:24:47;8.18;;;5.78;;
8044;SDS011;4065;48.754;9.982;2023-10-13T06:28:29;10.13;;;6.82;;
8044;SDS011;4065;48.754;9.982;2023-10-13T06:32:03;9.48;;;6.40;;
8044;SDS011;4065;48.754;9.982;2023-10-13T06:35:30;10.27;;;6.22;;
8044;SDS011;4065;48.754;9.982;2023-10-13T06:38:52;11.95;;;6.13;;
8044;SDS011;4065;48.754;9.982;2023-10-13T06:42:38;16.75;;;7.25;;
8044;SDS011;4065;48.754;9.982;2023-10-13T06:46:02;13.73;;;7.88;;
8044;SDS011;4065;48.754;9.982;2023-10-13T06:49:25;18.90;;;9.02;;
8044;SDS011;4065;48.754;9.982;2023-10-13T06:52:49;18.67;;;9.65;;
8044;SDS011;4065;48.754;9.982;2023-10-13T06:56:15;20.52;;;10.52;;
8044;SDS011;4065;48.754;9.982;2023-10-13T06:59:43;14.55;;;8.77;;
8044;SDS011;4065;48.754;9.982;2023-10-13T07:03:05;14.93;;;8.05;;
8044;SDS011;4065;48.754;9.982;2023-10-13T07:06:27;16.75;;;8.00;;
8044;SDS011;4065;48.754;9.982;2023-10-13T07:09:52;14.65;;;7.63;;
8044;SDS011;4065;48.754;9.982;2023-10-13T07:13:18;12.68;;;6.25;;
8044;SDS011;4065;48.754;9.982;2023-10-13T07:16:54;11.52;;;6.70;;
8044;SDS011;4065;48.754;9.982;2023-10-13T07:20:18;11.43;;;6.60;;
8044;SDS011;4065;48.754;9.982;2023-10-13T07:23:45;7.85;;;6.03;;
8044;SDS011;4065;48.754;9.982;2023-10-13T07:27:21;11.15;;;6.63;;
8044;SDS011;4065;48.754;9.982;2023-10-13T07:30:46;15.90;;;6.20;;
8044;SDS011;4065;48.754;9.982;2023-10-13T07:34:32;8.90;;;5.90;;
8044;SDS011;4065;48.754;9.982;2023-10-13T07:38:02;10.52;;;5.85;;
8044;SDS011;4065;48.754;9.982;2023-10-13T07:41:28;9.45;;;6.00;;
8044;SDS011;4065;48.754;9.982;2023-10-13T07:44:52;7.32;;;5.43;;
8044;SDS011;4065;48.754;9.982;2023-10-13T07:48:16;7.57;;;5.47;;
8044;SDS011;4065;48.754;9.982;2023-10-13T07:51:43;9.00;;;5.03;;
8044;SDS011;4065;48.754;9.982;2023-10-13T07:55:09;9.48;;;4.78;;
8044;SDS011;4065;48.754;9.982;2023-10-13T07:58:40;9.00;;;4.70;;
8044;SDS011;4065;48.754;9.982;2023-10-13T08:02:12;7.47;;;4.57;;
8044;SDS011;4065;48.754;9.982;2023-10-13T08:05:36;7.43;;;4.63;;
8044;SDS011;4065;48.754;9.982;2023-10-13T08:09:17;8.95;;;4.18;;
8044;SDS011;4065;48.754;9.982;2023-10-13T08:13:00;8.48;;;4.78;;
8044;SDS011;4065;48.754;9.982;2023-10-13T08:16:23;9.57;;;4.53;;
8044;SDS011;4065;48.754;9.982;2023-10-13T08:19:50;8.18;;;3.95;;
8044;SDS011;4065;48.754;9.982;2023-10-13T08:23:12;7.07;;;4.22;;
8044;SDS011;4065;48.754;9.982;2023-10-13T08:26:56;10.57;;;4.45;;
8044;SDS011;4065;48.754;9.982;2023-10-13T08:30:33;8.73;;;4.50;;
8044;SDS011;4065;48.754;9.982;2023-10-13T08:34:11;10.25;;;4.85;;
8044;SDS011;4065;48.754;9.982;2023-10-13T08:37:36;12.43;;;4.53;;
8044;SDS011;4065;48.754;9.982;2023-10-13T08:41:16;8.82;;;4.20;;
8044;SDS011;4065;48.754;9.982;2023-10-13T08:45:16;9.43;;;3.90;;
8044;SDS011;4065;48.754;9.982;2023-10-13T08:49:02;13.48;;;4.72;;
8044;SDS011;4065;48.754;9.982;2023-10-13T08:52:38;8.05;;;4.05;;
8044;SDS011;4065;48.754;9.982;2023-10-13T08:56:10;8.85;;;4.32;;
8044;SDS011;4065;48.754;9.982;2023-10-13T08:59:36;11.38;;;4.55;;
8044;SDS011;4065;48.754;9.982;2023-10-13T09:03:00;7.72;;;4.30;;
8044;SDS011;4065;48.754;9.982;2023-10-13T09:06:43;8.70;;;4.00;;
8044;SDS011;4065;48.754;9.982;2023-10-13T09:10:08;10.85;;;4.97;;
8044;SDS011;4065;48.754;9.982;2023-10-13T09:13:53;6.45;;;3.75;;
8044;SDS011;4065;48.754;9.982;2023-10-13T09:17:15;7.13;;;4.05;;
8044;SDS011;4065;48.754;9.982;2023-10-13T09:21:00;10.48;;;3.92;;
8044;SDS011;4065;48.754;9.982;2023-10-13T09:24:43;8.48;;;3.92;;
8044;SDS011;4065;48.754;9.982;2023-10-13T09:28:12;7.25;;;4.07;;
8044;SDS011;4065;48.754;9.982;2023-10-13T09:31:38;9.45;;;4.00;;
8044;SDS011;4065;48.754;9.982;2023-10-13T09:35:00;6.70;;;3.75;;
8044;SDS011;4065;48.754;9.982;2023-10-13T09:38:24;6.82;;;3.40;;
8044;SDS011;4065;48.754;9.982;2023-10-13T09:41:46;7.25;;;4.22;;
8044;SDS011;4065;48.754;9.982;2023-10-13T09:45:13;8.25;;;3.95;;
8044;SDS011;4065;48.754;9.982;2023-10-13T09:48:38;6.03;;;3.42;;
8044;SDS011;4065;48.754;9.982;2023-10-13T09:52:01;9.88;;;4.00;;
8044;SDS011;4065;48.754;9.982;2023-10-13T09:55:27;7.63;;;4.07;;
8044;SDS011;4065;48.754;9.982;2023-10-13T09:58:51;6.35;;;3.85;;
8044;SDS011;4065;48.754;9.982;2023-10-13T10:02:18;6.78;;;3.47;;
8044;SDS011;4065;48.754;9.982;2023-10-13T10:05:41;7.80;;;3.58;;
8044;SDS011;4065;48.754;9.982;2023-10-13T10:09:10;9.13;;;3.72;;
8044;SDS011;4065;48.754;9.982;2023-10-13T10:12:41;10.18;;;3.80;;
8044;SDS011;4065;48.754;9.982;2023-10-13T10:16:08;6.55;;;3.55;;
8044;SDS011;4065;48.754;9.982;2023-10-13T10:19:45;7.38;;;3.70;;
8044;SDS011;4065;48.754;9.982;2023-10-13T10:23:12;6.40;;;3.22;;
8044;SDS011;4065;48.754;9.982;2023-10-13T10:26:51;8.18;;;4.07;;
8044;SDS011;4065;48.754;9.982;2023-10-13T10:30:23;10.23;;;3.67;;
8044;SDS011;4065;48.754;9.982;2023-10-13T10:33:48;8.05;;;3.88;;
8044;SDS011;4065;48.754;9.982;2023-10-13T10:37:11;8.48;;;3.75;;
8044;SDS011;4065;48.754;9.982;2023-10-13T10:40:33;6.78;;;3.55;;
8044;SDS011;4065;48.754;9.982;2023-10-13T10:44:10;7.22;;;3.20;;
8044;SDS011;4065;48.754;9.982;2023-10-13T10:47:46;8.18;;;3.50;;
8044;SDS011;4065;48.754;9.982;2023-10-13T10:51:18;10.88;;;4.10;;
8044;SDS011;4065;48.754;9.982;2023-10-13T10:54:45;6.32;;;3.72;;
8044;SDS011;4065;48.754;9.982;2023-10-13T10:58:22;7.38;;;3.60;;
8044;SDS011;4065;48.754;9.982;2023-10-13T11:01:50;6.60;;;3.97;;
8044;SDS011;4065;48.754;9.982;2023-10-13T11:05:15;7.43;;;3.38;;
8044;SDS011;4065;48.754;9.982;2023-10-13T11:08:46;7.95;;;4.00;;
8044;SDS011;4065;48.754;9.982;2023-10-13T11:12:55;8.48;;;3.65;;
8044;SDS011;4065;48.754;9.982;2023-10-13T11:16:21;7.07;;;3.22;;
8044;SDS011;4065;48.754;9.982;2023-10-13T11:19:56;8.10;;;3.42;;
8044;SDS011;4065;48.754;9.982;2023-10-13T11:27:40;6.82;;;3.53;;
8044;SDS011;4065;48.754;9.982;2023-10-13T11:31:20;6.43;;;3.65;;
8044;SDS011;4065;48.754;9.982;2023-10-13T11:34:44;7.30;;;3.53;;
8044;SDS011;4065;48.754;9.982;2023-10-13T11:38:12;6.88;;;3.05;;
8044;SDS011;4065;48.754;9.982;2023-10-13T11:41:36;8.75;;;3.25;;
8044;SDS011;4065;48.754;9.982;2023-10-13T11:45:11;7.07;;;2.85;;
8044;SDS011;4065;48.754;9.982;2023-10-13T11:48:49;7.70;;;3.33;;
8044;SDS011;4065;48.754;9.982;2023-10-13T11:52:15;6.00;;;3.33;;
8044;SDS011;4065;48.754;9.982;2023-10-13T11:55:40;7.00;;;3.70;;
8044;SDS011;4065;48.754;9.982;2023-10-13T11:59:09;6.50;;;3.35;;
8044;SDS011;4065;48.754;9.982;2023-10-13T12:02:37;6.22;;;3.10;;
8044;SDS011;4065;48.754;9.982;2023-10-13T12:06:17;6.47;;;3.45;;
8044;SDS011;4065;48.754;9.982;2023-10-13T12:09:53;8.02;;;3.60;;
8044;SDS011;4065;48.754;9.982;2023-10-13T12:13:27;7.82;;;3.22;;
8044;SDS011;4065;48.754;9.982;2023-10-13T12:16:53;4.95;;;2.72;;
8044;SDS011;4065;48.754;9.982;2023-10-13T12:20:17;6.15;;;3.13;;
8044;SDS011;4065;48.754;9.982;2023-10-13T12:23:52;6.82;;;3.17;;
8044;SDS011;4065;48.754;9.982;2023-10-13T12:27:19;5.45;;;2.75;;
8044;SDS011;4065;48.754;9.982;2023-10-13T12:30:46;5.72;;;3.13;;
8044;SDS011;4065;48.754;9.982;2023-10-13T12:34:26;5.35;;;3.20;;
8044;SDS011;4065;48.754;9.982;2023-10-13T12:38:10;3.97;;;2.90;;
8044;SDS011;4065;48.754;9.982;2023-10-13T12:41:57;8.90;;;3.17;;
8044;SDS011;4065;48.754;9.982;2023-10-13T12:45:39;11.60;;;3.70;;
8044;SDS011;4065;48.754;9.982;2023-10-13T12:49:19;10.60;;;3.40;;
8044;SDS011;4065;48.754;9.982;2023-10-13T12:53:03;4.93;;;3.17;;
8044;SDS011;4065;48.754;9.982;2023-10-13T12:56:25;8.43;;;3.55;;
8044;SDS011;4065;48.754;9.982;2023-10-13T12:59:50;5.35;;;2.88;;
8044;SDS011;4065;48.754;9.982;2023-10-13T13:03:14;7.85;;;3.22;;
8044;SDS011;4065;48.754;9.982;2023-10-13T13:06:43;10.02;;;3.60;;
8044;SDS011;4065;48.754;9.982;2023-10-13T13:10:10;7.00;;;3.35;;
8044;SDS011;4065;48.754;9.982;2023-10-13T13:13:36;8.20;;;3.70;;
8044;SDS011;4065;48.754;9.982;2023-10-13T13:25:42;6.13;;;3.35;;
8044;SDS011;4065;48.754;9.982;2023-10-13T13:29:04;7.00;;;3.00;;
8044;SDS011;4065;48.754;9.982;2023-10-13T13:32:32;8.65;;;3.60;;
8044;SDS011;4065;48.754;9.982;2023-10-13T13:35:57;7.30;;;3.25;;
8044;SDS011;4065;48.754;9.982;2023-10-13T13:39:21;5.93;;;3.28;;
8044;SDS011;4065;48.754;9.982;2023-10-13T13:42:52;6.75;;;3.35;;
8044;SDS011;4065;48.754;9.982;2023-10-13T13:46:17;5.75;;;3.17;;
8044;SDS011;4065;48.754;9.982;2023-10-13T13:49:39;7.13;;;3.35;;
8044;SDS011;4065;48.754;9.982;2023-10-13T13:53:06;7.90;;;3.80;;
8044;SDS011;4065;48.754;9.982;2023-10-13T13:56:34;6.90;;;3.70;;
8044;SDS011;4065;48.754;9.982;2023-10-13T14:00:03;10.50;;;3.83;;
8044;SDS011;4065;48.754;9.982;2023-10-13T14:03:27;5.93;;;2.90;;
8044;SDS011;4065;48.754;9.982;2023-10-13T14:06:52;6.68;;;3.40;;
8044;SDS011;4065;48.754;9.982;2023-10-13T14:10:18;5.47;;;3.10;;
8044;SDS011;4065;48.754;9.982;2023-10-13T14:13:54;5.47;;;3.30;;
8044;SDS011;4065;48.754;9.982;2023-10-13T14:17:18;7.15;;;3.50;;
8044;SDS011;4065;48.754;9.982;2023-10-13T14:20:40;7.38;;;3.17;;
8044;SDS011;4065;48.754;9.982;2023-10-13T14:24:05;6.40;;;3.47;;
8044;SDS011;4065;48.754;9.982;2023-10-13T14:27:33;6.82;;;3.40;;
8044;SDS011;4065;48.754;9.982;2023-10-13T14:30:56;7.97;;;3.58;;
8044;SDS011;4065;48.754;9.982;2023-10-13T14:34:19;5.63;;;3.70;;
8044;SDS011;4065;48.754;9.982;2023-10-13T14:37:46;7.97;;;3.75;;
8044;SDS011;4065;48.754;9.982;2023-10-13T14:41:10;7.55;;;3.63;;
8044;SDS011;4065;48.754;9.982;2023-10-13T14:44:32;10.45;;;3.60;;
8044;SDS011;4065;48.754;9.982;2023-10-13T14:47:54;8.95;;;3.80;;
8044;SDS011;4065;48.754;9.982;2023-10-13T14:54:52;5.80;;;3.20;;
8044;SDS011;4065;48.754;9.982;2023-10-13T14:58:16;9.35;;;4.15;;
8044;SDS011;4065;48.754;9.982;2023-10-13T15:01:38;9.40;;;4.03;;
8044;SDS011;4065;48.754;9.982;2023-10-13T15:05:01;6.50;;;3.70;;
8044;SDS011;4065;48.754;9.982;2023-10-13T15:08:26;7.43;;;3.63;;
8044;SDS011;4065;48.754;9.982;2023-10-13T15:11:51;6.22;;;3.90;;
8044;SDS011;4065;48.754;9.982;2023-10-13T15:15:25;6.85;;;3.53;;
8044;SDS011;4065;48.754;9.982;2023-10-13T15:18:51;9.07;;;3.55;;
8044;SDS011;4065;48.754;9.982;2023-10-13T15:22:13;8.35;;;3.70;;
8044;SDS011;4065;48.754;9.982;2023-10-13T15:25:43;6.57;;;3.80;;
8044;SDS011;4065;48.754;9.982;2023-10-13T15:29:10;9.95;;;3.90;;
8044;SDS011;4065;48.754;9.982;2023-10-13T15:32:33;6.45;;;3.80;;
8044;SDS011;4065;48.754;9.982;2023-10-13T15:36:05;8.00;;;3.50;;
8044;SDS011;4065;48.754;9.982;2023-10-13T15:39:28;9.75;;;3.75;;
8044;SDS011;4065;48.754;9.982;2023-10-13T15:42:53;6.63;;;3.78;;
8044;SDS011;4065;48.754;9.982;2023-10-13T15:46:20;7.60;;;3.80;;
8044;SDS011;4065;48.754;9.982;2023-10-13T15:49:44;7.30;;;3.45;;
8044;SDS011;4065;48.754;9.982;2023-10-13T15:53:06;5.82;;;3.70;;
8044;SDS011;4065;48.754;9.982;2023-10-13T15:56:32;8.88;;;3.70;;
8044;SDS011;4065;48.754;9.982;2023-10-13T15:59:57;6.70;;;3.55;;
8044;SDS011;4065;48.754;9.982;2023-10-13T16:03:21;9.63;;;4.05;;
8044;SDS011;4065;48.754;9.982;2023-10-13T16:06:44;5.22;;;3.60;;
8044;SDS011;4065;48.754;9.982;2023-10-13T16:10:10;6.57;;;3.78;;
8044;SDS011;4065;48.754;9.982;2023-10-13T16:13:34;6.45;;;3.90;;
8044;SDS011;4065;48.754;9.982;2023-10-13T16:16:58;5.57;;;3.63;;
8044;SDS011;4065;48.754;9.982;2023-10-13T16:20:20;6.45;;;3.60;;
8044;SDS011;4065;48.754;9.982;2023-10-13T16:23:48;8.35;;;4.10;;
8044;SDS011;4065;48.754;9.982;2023-10-13T16:27:10;8.05;;;3.85;;
8044;SDS011;4065;48.754;9.982;2023-10-13T16:30:34;11.13;;;4.35;;
8044;SDS011;4065;48.754;9.982;2023-10-13T16:33:59;12.57;;;4.53;;
8044;SDS011;4065;48.754;9.982;2023-10-13T16:37:22;14.07;;;4.68;;
8044;SDS011;4065;48.754;9.982;2023-10-13T16:40:44;9.43;;;4.55;;
8044;SDS011;4065;48.754;9.982;2023-10-13T16:44:06;10.05;;;3.95;;
8044;SDS011;4065;48.754;9.982;2023-10-13T16:47:29;10.43;;;6.57;;
8044;SDS011;4065;48.754;9.982;2023-10-13T16:50:53;8.13;;;6.22;;
8044;SDS011;4065;48.754;9.982;2023-10-13T16:54:17;13.70;;;10.10;;
8044;SDS011;4065;48.754;9.982;2023-10-13T16:57:49;23.88;;;17.40;;
8044;SDS011;4065;48.754;9.982;2023-10-13T17:01:11;45.83;;;36.95;;
8044;SDS011;4065;48.754;9.982;2023-10-13T17:04:34;48.83;;;36.30;;
8044;SDS011;4065;48.754;9.982;2023-10-13T17:07:57;43.38;;;32.72;;
8044;SDS011;4065;48.754;9.982;2023-10-13T17:11:19;22.45;;;15.73;;
8044;SDS011;4065;48.754;9.982;2023-10-13T17:14:41;20.67;;;14.35;;
8044;SDS011;4065;48.754;9.982;2023-10-13T17:18:04;17.17;;;10.98;;
8044;SDS011;4065;48.754;9.982;2023-10-13T17:21:27;14.13;;;9.32;;
8044;SDS011;4065;48.754;9.982;2023-10-13T17:24:51;12.90;;;7.55;;
8044;SDS011;4065;48.754;9.982;2023-10-13T17:28:14;10.32;;;7.80;;
8044;SDS011;4065;48.754;9.982;2023-10-13T17:31:36;11.23;;;6.88;;
8044;SDS011;4065;48.754;9.982;2023-10-13T17:34:58;13.45;;;6.90;;
8044;SDS011;4065;48.754;9.982;2023-10-13T17:38:21;13.07;;;6.07;;
8044;SDS011;4065;48.754;9.982;2023-10-13T17:41:48;14.68;;;5.60;;
8044;SDS011;4065;48.754;9.982;2023-10-13T17:45:10;9.18;;;4.95;;
8044;SDS011;4065;48.754;9.982;2023-10-13T17:48:32;5.57;;;4.40;;
8044;SDS011;4065;48.754;9.982;2023-10-13T17:51:57;7.15;;;4.53;;
8044;SDS011;4065;48.754;9.982;2023-10-13T17:55:19;9.30;;;4.43;;
8044;SDS011;4065;48.754;9.982;2023-10-13T17:58:43;8.02;;;4.97;;
8044;SDS011;4065;48.754;9.982;2023-10-13T18:02:05;9.75;;;4.95;;
8044;SDS011;4065;48.754;9.982;2023-10-13T18:05:27;9.82;;;4.82;;
8044;SDS011;4065;48.754;9.982;2023-10-13T18:08:49;9.40;;;4.70;;
8044;SDS011;4065;48.754;9.982;2023-10-13T18:12:15;7.45;;;4.35;;
8044;SDS011;4065;48.754;9.982;2023-10-13T18:15:38;11.52;;;4.47;;
8044;SDS011;4065;48.754;9.982;2023-10-13T18:19:00;9.43;;;4.30;;
8044;SDS011;4065;48.754;9.982;2023-10-13T18:22:27;7.10;;;4.47;;
8044;SDS011;4065;48.754;9.982;2023-10-13T18:25:50;10.15;;;4.35;;
8044;SDS011;4065;48.754;9.982;2023-10-13T18:29:12;7.38;;;4.45;;
8044;SDS011;4065;48.754;9.982;2023-10-13T18:32:37;12.00;;;4.90;;
8044;SDS011;4065;48.754;9.982;2023-10-13T18:36:09;7.78;;;4.43;;
8044;SDS011;4065;48.754;9.982;2023-10-13T18:39:33;9.02;;;4.40;;
8044;SDS011;4065;48.754;9.982;2023-10-13T18:42:55;5.85;;;4.10;;
8044;SDS011;4065;48.754;9.982;2023-10-13T18:46:18;9.23;;;4.38;;
8044;SDS011;4065;48.754;9.982;2023-10-13T18:49:43;7.82;;;4.28;;
8044;SDS011;4065;48.754;9.982;2023-10-13T18:53:05;9.40;;;4.43;;
8044;SDS011;4065;48.754;9.982;2023-10-13T18:56:29;12.90;;;4.55;;
8044;SDS011;4065;48.754;9.982;2023-10-13T18:59:53;10.70;;;4.10;;
8044;SDS011;4065;48.754;9.982;2023-10-13T19:03:15;6.57;;;4.47;;
8044;SDS011;4065;48.754;9.982;2023-10-13T19:06:40;7.72;;;4.22;;
8044;SDS011;4065;48.754;9.982;2023-10-13T19:10:03;7.95;;;4.15;;
8044;SDS011;4065;48.754;9.982;2023-10-13T19:13:35;8.80;;;4.07;;
8044;SDS011;4065;48.754;9.982;2023-10-13T19:16:57;6.43;;;4.28;;
8044;SDS011;4065;48.754;9.982;2023-10-13T19:20:20;9.38;;;4.25;;
8044;SDS011;4065;48.754;9.982;2023-10-13T19:23:43;6.53;;;4.00;;
8044;SDS011;4065;48.754;9.982;2023-10-13T19:27:08;8.30;;;4.55;;
8044;SDS011;4065;48.754;9.982;2023-10-13T19:30:30;6.28;;;4.15;;
8044;SDS011;4065;48.754;9.982;2023-10-13T19:33:56;10.68;;;3.83;;
8044;SDS011;4065;48.754;9.982;2023-10-13T19:37:22;11.23;;;4.38;;
8044;SDS011;4065;48.754;9.982;2023-10-13T19:40:47;8.38;;;4.20;;
8044;SDS011;4065;48.754;9.982;2023-10-13T19:44:09;10.18;;;4.47;;
8044;SDS011;4065;48.754;9.982;2023-10-13T19:47:34;7.93;;;4.50;;
8044;SDS011;4065;48.754;9.982;2023-10-13T19:50:57;9.52;;;4.50;;
8044;SDS011;4065;48.754;9.982;2023-10-13T19:54:19;6.93;;;4.18;;
8044;SDS011;4065;48.754;9.982;2023-10-13T19:57:43;8.18;;;4.30;;
8044;SDS011;4065;48.754;9.982;2023-10-13T20:01:06;8.57;;;4.60;;
8044;SDS011;4065;48.754;9.982;2023-10-13T20:04:28;13.75;;;4.75;;
8044;SDS011;4065;48.754;9.982;2023-10-13T20:07:50;8.98;;;3.85;;
8044;SDS011;4065;48.754;9.982;2023-10-13T20:11:14;6.32;;;4.18;;
8044;SDS011;4065;48.754;9.982;2023-10-13T20:14:38;7.47;;;4.13;;
8044;SDS011;4065;48.754;9.982;2023-10-13T20:18:02;7.70;;;4.20;;
8044;SDS011;4065;48.754;9.982;2023-10-13T20:21:28;8.07;;;4.10;;
8044;SDS011;4065;48.754;9.982;2023-10-13T20:24:51;8.10;;;4.25;;
8044;SDS011;4065;48.754;9.982;2023-10-13T20:28:13;11.15;;;3.78;;
8044;SDS011;4065;48.754;9.982;2023-10-13T20:31:38;5.20;;;3.55;;
8044;SDS011;4065;48.754;9.982;2023-10-13T20:35:02;8.07;;;3.85;;
8044;SDS011;4065;48.754;9.982;2023-10-13T20:38:24;8.57;;;3.88;;
8044;SDS011;4065;48.754;9.982;2023-10-13T20:41:48;4.65;;;3.50;;
8044;SDS011;4065;48.754;9.982;2023-10-13T20:45:11;9.38;;;3.22;;
8044;SDS011;4065;48.754;9.982;2023-10-13T20:48:34;9.30;;;3.80;;
8044;SDS011;4065;48.754;9.982;2023-10-13T20:51:56;6.18;;;3.78;;
8044;SDS011;4065;48.754;9.982;2023-10-13T20:55:18;5.97;;;3.60;;
8044;SDS011;4065;48.754;9.982;2023-10-13T20:58:40;7.63;;;3.72;;
8044;SDS011;4065;48.754;9.982;2023-10-13T21:02:04;10.93;;;3.70;;
8044;SDS011;4065;48.754;9.982;2023-10-13T21:05:29;7.45;;;3.45;;
8044;SDS011;4065;48.754;9.982;2023-10-13T21:08:52;6.97;;;3.72;;
8044;SDS011;4065;48.754;9.982;2023-10-13T21:12:15;6.70;;;3.60;;
8044;SDS011;4065;48.754;9.982;2023-10-13T21:15:37;5.32;;;3.55;;
8044;SDS011;4065;48.754;9.982;2023-10-13T21:19:00;5.57;;;3.40;;
8044;SDS011;4065;48.754;9.982;2023-10-13T21:22:26;5.88;;;3.63;;
8044;SDS011;4065;48.754;9.982;2023-10-13T21:25:48;8.07;;;3.50;;
8044;SDS011;4065;48.754;9.982;2023-10-13T21:29:10;6.68;;;3.80;;
8044;SDS011;4065;48.754;9.982;2023-10-13T21:32:32;6.25;;;3.53;;
8044;SDS011;4065;48.754;9.982;2023-10-13T21:35:54;8.48;;;3.45;;
8044;SDS011;4065;48.754;9.982;2023-10-13T21:39:19;10.38;;;3.85;;